Nephi, UT

5:51 PM MDT on August 28, 2014 (GMT -0600)
Provo Municipal | Change Station
CLOSE
Current Station
Airport
Location: Provo,
Elevation: 4495 ft
Nearby Weather Stations

Elev 4495 ft 40.22 °N, 111.72 °W | Updated 2 hours ago

Scattered Clouds
Scattered Clouds
77 °F
Feels Like 77 °F
N
5
Wind Variable Wind from Variable

Today
High -- | Low -- °F
--% Chance of Precip.
Yesterday
High -- | Low -- °F
Precip. -- in
6:51 AM 8:04 PM
Waxing Crescent, 10% visible
Pressure 30.20 in
Visibility 15.0 miles
Clouds Scattered Clouds 8000 ft
Dew Point 45 °F
Humidity 32%
Rainfall 0.00 in
Snow Depth Not available.
UV 7 out of 12
Pollen 8.30 out of 12
Air Quality Not available.
Flu Activity Not available.
METAR KPVU 282100Z VRB04KT 15SM SCT080 25/07 A3020

More Conditions Fewer Conditions

Pressure 30.20 in
Visibility 15.0 miles
Clouds Scattered Clouds 8000 ft
Dew Point 45 °F
Humidity 32%
Rainfall 0.00 in
Snow Depth Not available.
UV 7 out of 12
Pollen 8.30 out of 12
Air Quality Not available.
Flu Activity Not available.
METAR KPVU 282100Z VRB04KT 15SM SCT080 25/07 A3020

More Conditions Fewer Conditions

10-Day Weather Forecast

Almanac

Astronomy

Aug. 28, 2014 Rise Set
Actual Time 6:51 AM MDT 8:04 PM MDT
Civil Twilight 6:23 AM MDT 8:32 PM MDT
Nautical Twilight 5:50 AM MDT 9:05 PM MDT
Astronomical Twilight 5:15 AM MDT 9:40 PM MDT
Moon 9:47 AM MDT 9:31 PM MDT
Length of Visible Light 14h 08m
Length of Day
13h 12m
Tomorrow will be 2m 28s shorter.
Waxing Crescent, 10% of the Moon is Illuminated
Today
Waxing Crescent
Sep 2
First Quarter
Sep 8
Full
Sep 15
Last Quarter
Sep 24
New

Today's Extremes

State Highs State Lows

Community

WunderPhotos

Upload Photos

1,748,105 photos uploaded!

Nearby

Snow Depth

Station Depth Elevation
Cascade Mountain 0 in 7768 ft
Gooseberry R.S. 0 in 7920 ft
Louis Meadow 0 in 6700 ft
Trial Lake 1 in 9960 ft
Box Creek 0 in 9800 ft

Earthquake Activity

City Distance Mag. Time & Date
No recent earthquake activity has been reported nearby.
Minimum magnitude displayed is 2.5.

Coastal Water Temperatures

Place Temperature
No Stations Reporting

Nearby Weather Stations